createdAt,value
2019-05-05T00:03:40.686Z,10.85
2019-05-05T00:08:45.762Z,11.57
2019-05-05T00:14:01.159Z,12.53
2019-05-05T00:19:06.067Z,10.80
2019-05-05T00:24:10.755Z,11.00
2019-05-05T00:29:15.441Z,15.55
2019-05-05T00:34:20.150Z,11.85
2019-05-05T00:39:25.511Z,13.25
2019-05-05T00:44:30.243Z,15.45
2019-05-05T00:49:45.528Z,12.88
2019-05-05T00:54:44.929Z,12.70
2019-05-05T00:59:48.952Z,14.10
2019-05-05T01:05:04.505Z,13.30
2019-05-05T01:10:09.588Z,10.68
2019-05-05T01:15:15.110Z,12.30
2019-05-05T01:20:19.762Z,12.13
2019-05-05T01:25:25.457Z,14.10
2019-05-05T01:30:35.061Z,9.48
2019-05-05T01:35:39.860Z,11.18
2019-05-05T01:40:52.063Z,14.03
2019-05-05T01:45:57.146Z,15.78
2019-05-05T01:51:01.777Z,11.95
2019-05-05T01:56:06.676Z,11.88
2019-05-05T02:01:11.383Z,10.88
2019-05-05T02:06:15.998Z,10.70
2019-05-05T02:11:24.519Z,12.63
2019-05-05T02:16:28.642Z,12.47
2019-05-05T02:21:35.195Z,13.93
2019-05-05T02:26:39.620Z,13.93
2019-05-05T02:31:45.805Z,12.10
2019-05-05T02:36:51.622Z,13.00
2019-05-05T02:41:58.285Z,12.20
2019-05-05T02:47:10.197Z,13.05
2019-05-05T02:52:15.841Z,19.23
2019-05-05T02:57:23.936Z,12.55
2019-05-05T03:02:30.232Z,11.30
2019-05-05T03:07:36.103Z,13.08
2019-05-05T03:12:41.136Z,12.93
2019-05-05T03:17:46.470Z,13.70
2019-05-05T03:22:51.124Z,14.50
2019-05-05T03:27:55.830Z,10.15
2019-05-05T03:33:00.620Z,11.10
2019-05-05T03:38:05.232Z,9.63
2019-05-05T03:43:11.576Z,11.00
2019-05-05T03:48:16.309Z,8.38
2019-05-05T03:53:21.098Z,9.43
2019-05-05T03:58:26.911Z,8.70
2019-05-05T04:03:31.472Z,8.58
2019-05-05T04:08:38.196Z,10.23
2019-05-05T04:13:44.778Z,7.97
2019-05-05T04:18:51.038Z,9.88
2019-05-05T04:23:55.691Z,8.90
2019-05-05T04:29:02.440Z,7.10
2019-05-05T04:34:06.546Z,7.67
2019-05-05T04:39:11.306Z,7.65
2019-05-05T04:44:17.940Z,13.75
2019-05-05T04:49:26.798Z,13.85
2019-05-05T04:54:38.947Z,14.13
2019-05-05T04:59:44.428Z,12.33
2019-05-05T05:04:50.842Z,11.63
2019-05-05T05:09:55.462Z,7.78
2019-05-05T05:14:59.969Z,9.85
2019-05-05T05:20:06.704Z,10.63
2019-05-05T05:25:13.454Z,12.75
2019-05-05T05:30:17.937Z,14.93
2019-05-05T05:35:24.401Z,19.40
2019-05-05T05:40:36.063Z,15.15
2019-05-05T05:45:46.907Z,10.45
2019-05-05T05:50:55.549Z,8.45
2019-05-05T05:56:00.046Z,14.00
2019-05-05T06:01:06.223Z,11.30
2019-05-05T06:06:10.960Z,12.18
2019-05-05T06:11:15.723Z,11.63
2019-05-05T06:16:20.347Z,8.68
2019-05-05T06:21:24.938Z,11.03
2019-05-05T06:26:29.631Z,12.85
2019-05-05T06:31:34.405Z,12.53
2019-05-05T06:36:39.030Z,7.67
2019-05-05T06:41:45.189Z,10.80
2019-05-05T06:47:09.607Z,17.45
2019-05-05T06:52:14.387Z,9.40
2019-05-05T06:57:18.929Z,8.00
2019-05-05T07:02:23.886Z,11.78
2019-05-05T07:07:28.492Z,11.22
2019-05-05T07:12:34.700Z,11.55
2019-05-05T07:17:39.438Z,11.08
2019-05-05T07:22:58.439Z,9.90
2019-05-05T07:27:50.513Z,14.53
2019-05-05T07:32:55.166Z,10.58
2019-05-05T07:37:59.698Z,9.20
2019-05-05T07:43:04.637Z,11.15
2019-05-05T07:48:09.336Z,10.82
2019-05-05T07:53:17.516Z,8.23
2019-05-05T07:58:20.286Z,9.45
2019-05-05T08:03:24.891Z,13.70
2019-05-05T08:08:29.518Z,9.93
2019-05-05T08:13:34.136Z,10.23
2019-05-05T08:18:40.508Z,8.53
2019-05-05T08:23:46.687Z,8.23
2019-05-05T08:29:07.843Z,8.53
2019-05-05T08:34:14.253Z,7.33
2019-05-05T08:39:21.474Z,8.68
2019-05-05T08:44:25.367Z,8.38
2019-05-05T08:49:30.109Z,8.10
2019-05-05T08:54:34.774Z,10.23
2019-05-05T08:59:39.400Z,11.08
2019-05-05T09:04:44.651Z,10.70
2019-05-05T09:09:49.405Z,7.87
2019-05-05T09:14:54.107Z,8.40
2019-05-05T09:19:58.786Z,7.83
2019-05-05T09:25:13.553Z,9.78
2019-05-05T09:30:21.165Z,9.28
2019-05-05T09:35:25.780Z,9.88
2019-05-05T09:40:38.658Z,7.97
2019-05-05T09:45:44.177Z,7.72
2019-05-05T09:50:49.999Z,8.18
2019-05-05T09:55:54.819Z,10.85
2019-05-05T10:00:59.369Z,10.32
2019-05-05T10:06:05.011Z,10.20
2019-05-05T10:11:09.740Z,13.40
2019-05-05T10:16:14.494Z,8.98
2019-05-05T10:21:19.143Z,9.98
2019-05-05T10:26:23.945Z,11.50
2019-05-05T10:31:28.513Z,9.45
2019-05-05T10:36:33.700Z,8.33
2019-05-05T10:41:38.495Z,9.73
2019-05-05T10:46:43.194Z,14.83
2019-05-05T10:51:47.970Z,11.22
2019-05-05T10:56:52.855Z,11.97
2019-05-05T11:01:57.478Z,12.55
2019-05-05T11:07:04.225Z,13.10
2019-05-05T11:12:08.470Z,9.33
2019-05-05T11:17:14.420Z,9.25
2019-05-05T11:22:19.183Z,16.20
2019-05-05T11:27:24.176Z,10.65
2019-05-05T11:32:46.656Z,13.28
2019-05-05T11:37:51.309Z,12.90
2019-05-05T11:42:55.951Z,16.02
2019-05-05T11:48:00.517Z,12.60
2019-05-05T11:53:05.223Z,9.03
2019-05-05T11:58:09.853Z,10.63
2019-05-05T12:03:14.612Z,11.50
2019-05-05T12:08:19.212Z,11.15
2019-05-05T12:13:23.604Z,15.72
2019-05-05T12:18:28.344Z,16.15
2019-05-05T12:23:33.933Z,10.38
2019-05-05T12:28:41.154Z,15.53
2019-05-05T12:33:45.755Z,15.93
2019-05-05T12:38:50.375Z,14.68
2019-05-05T12:43:55.162Z,9.55
2019-05-05T12:49:01.622Z,11.12
2019-05-05T12:54:06.338Z,19.00
2019-05-05T12:59:14.254Z,12.10
2019-05-05T13:04:19.017Z,11.80
2019-05-05T13:09:24.492Z,20.82
2019-05-05T13:14:30.671Z,17.17
2019-05-05T13:19:39.841Z,17.90
2019-05-05T13:24:47.040Z,19.95
2019-05-05T13:29:53.522Z,12.58
2019-05-05T13:34:58.015Z,15.38
2019-05-05T13:40:04.356Z,19.02
2019-05-05T13:45:20.074Z,15.88
2019-05-05T13:50:29.819Z,21.02
2019-05-05T13:55:34.797Z,14.50
2019-05-05T14:00:39.471Z,15.50
2019-05-05T14:05:44.207Z,15.93
2019-05-05T14:10:49.115Z,19.67
2019-05-05T14:15:54.509Z,21.35
2019-05-05T14:21:00.754Z,18.67
2019-05-05T14:26:05.454Z,19.00
2019-05-05T14:31:13.942Z,16.40
2019-05-05T14:36:33.409Z,17.65
2019-05-05T14:41:38.063Z,18.17
2019-05-05T14:46:44.594Z,19.32
2019-05-05T14:51:51.563Z,22.45
2019-05-05T14:56:55.992Z,20.92
2019-05-05T15:02:00.686Z,18.12
2019-05-05T15:07:14.421Z,21.45
2019-05-05T15:12:23.849Z,14.53
2019-05-05T15:17:28.416Z,23.60
2019-05-05T15:22:34.372Z,15.50
2019-05-05T15:27:39.059Z,16.42
2019-05-05T15:32:43.904Z,15.80
2019-05-05T15:37:48.530Z,20.30
2019-05-05T15:42:54.448Z,18.35
2019-05-05T15:47:59.187Z,19.77
2019-05-05T15:53:03.964Z,21.90
2019-05-05T15:58:08.492Z,19.27
2019-05-05T16:03:13.631Z,19.82
2019-05-05T16:08:18.454Z,14.63
2019-05-05T16:13:23.205Z,22.48
2019-05-05T16:18:32.923Z,18.30
2019-05-05T16:23:39.137Z,21.35
2019-05-05T16:28:45.623Z,18.10
2019-05-05T16:33:50.388Z,17.35
2019-05-05T16:38:55.332Z,15.60
2019-05-05T16:44:00.131Z,21.07
2019-05-05T16:49:04.764Z,12.20
2019-05-05T16:54:10.995Z,14.10
2019-05-05T16:59:16.536Z,13.60
2019-05-05T17:04:21.400Z,17.57
2019-05-05T17:09:26.017Z,19.42
2019-05-05T17:14:33.767Z,22.82
2019-05-05T17:19:44.299Z,20.52
2019-05-05T17:24:48.412Z,21.65
2019-05-05T17:29:53.636Z,17.95
2019-05-05T17:34:58.389Z,22.42
2019-05-05T17:40:04.704Z,25.40
2019-05-05T17:45:15.215Z,19.87
2019-05-05T17:50:23.768Z,24.63
2019-05-05T17:55:29.507Z,22.98
2019-05-05T18:00:35.839Z,21.82
2019-05-05T18:05:58.313Z,26.52
2019-05-05T18:11:04.533Z,23.77
2019-05-05T18:16:09.182Z,21.15
2019-05-05T18:21:14.310Z,17.98
2019-05-05T18:26:19.069Z,23.52
2019-05-05T18:31:24.250Z,21.48
2019-05-05T18:36:29.114Z,19.02
2019-05-05T18:41:35.376Z,19.07
2019-05-05T18:46:40.239Z,19.55
2019-05-05T18:51:45.838Z,37.10
2019-05-05T18:56:50.467Z,30.50
2019-05-05T19:02:08.732Z,38.30
2019-05-05T19:07:15.977Z,23.40
2019-05-05T19:12:20.606Z,25.92
2019-05-05T19:17:25.215Z,26.30
2019-05-05T19:22:30.016Z,25.10
2019-05-05T19:27:34.782Z,22.32
2019-05-05T19:32:43.717Z,22.13
2019-05-05T19:37:48.551Z,29.23
2019-05-05T19:42:53.863Z,26.87
2019-05-05T19:47:58.714Z,25.12
2019-05-05T19:53:04.572Z,26.15
2019-05-05T19:58:09.240Z,29.00
2019-05-05T20:03:14.379Z,27.32
2019-05-05T20:08:19.135Z,30.02
2019-05-05T20:13:24.198Z,21.62
2019-05-05T20:18:28.974Z,21.05
2019-05-05T20:23:34.077Z,14.80
2019-05-05T20:28:39.824Z,9.45
2019-05-05T20:34:03.953Z,7.53
2019-05-05T20:39:08.601Z,12.30
2019-05-05T20:44:14.713Z,5.72
2019-05-05T20:49:19.258Z,8.03
2019-05-05T20:54:23.831Z,8.40
2019-05-05T20:59:31.015Z,5.55
2019-05-05T21:04:34.790Z,7.45
2019-05-05T21:09:39.346Z,16.15
2019-05-05T21:14:44.659Z,12.63
2019-05-05T21:19:49.341Z,17.90
2019-05-05T21:24:54.369Z,23.18
2019-05-05T21:30:00.154Z,21.57
2019-05-05T21:35:05.915Z,17.87
2019-05-05T21:40:11.393Z,29.18
2019-05-05T21:45:16.019Z,15.58
2019-05-05T21:50:43.618Z,18.60
2019-05-05T21:55:55.718Z,16.93
2019-05-05T22:01:04.351Z,17.27
2019-05-05T22:06:10.261Z,20.62
2019-05-05T22:11:14.886Z,13.08
2019-05-05T22:16:19.724Z,14.15
2019-05-05T22:21:26.029Z,16.77
2019-05-05T22:26:30.663Z,10.75
2019-05-05T22:31:35.499Z,14.07
2019-05-05T22:36:42.094Z,10.18
2019-05-05T22:41:46.702Z,14.95
2019-05-05T22:46:53.663Z,14.20
2019-05-05T22:51:57.704Z,12.82
2019-05-05T22:57:04.443Z,17.65
2019-05-05T23:02:09.743Z,13.58
2019-05-05T23:07:15.948Z,12.30
2019-05-05T23:12:20.506Z,14.05
2019-05-05T23:17:35.578Z,12.45
2019-05-05T23:22:57.478Z,8.15
2019-05-05T23:28:04.041Z,11.38
2019-05-05T23:33:08.384Z,12.03
2019-05-05T23:38:14.345Z,9.00
2019-05-05T23:43:20.123Z,17.20
2019-05-05T23:48:26.247Z,10.28
2019-05-05T23:53:30.811Z,11.95
2019-05-05T23:58:35.374Z,8.88
